X  Close Metar Aviation Weather Data     YMML Melbourne International Airport
Temperature
20°C Temperature
15°C Dewpoint
73% Humidity



Wind
26 KM/H
16 MPH
7 M/S
14 KTS



180°
South
Current Conditions

Mostly Scattered Clouds Mostly Scattered Clouds
Pressure 1016.92 (hPa) - 30.03 (inHg)
Visibility 6.2 (mile) - 10 (km)
Airport
Airport-code YMML

Location: Melbourne International Airport
Distance: 11 (km)

Metar:
YMML 290700Z 18014KT 9999 SCT021 BKN029 20/15 Q1017

Time: 29-01-2022 18:00 AEDT